Terminal Aerodrome Forecast
Issued by NWS Charleston, WV

Current Version | Previous Version | Graphics & Text | Print | Product List | Glossary On
Versions: 1 2 3 4 5 6 7 8 9 10 11 12 13 14 15 16 17 18 19 20 21 22 23 24
464
FTUS41 KRLX 270227 AAA
TAFPKB
TAF AMD
KPKB 270227Z 2702/2724 00000KT 4SM BR VCTS BKN040CB
      TEMPO 2702/2705 2SM TSRA BR BKN025CB
     FM270500 00000KT 5SM BR BKN050
      TEMPO 2705/2709 1SM BR BKN001
     FM270900 00000KT 1/4SM FG OVC001
     FM271300 00000KT 5SM BR SCT001 BKN050
     FM271500 21003KT P6SM OVC015
     FM271600 21004KT P6SM OVC035
     FM272300 00000KT P6SM SCT070=

USA.gov is the U.S. government's official web portal to all federal, state and local government web resources and services.